sensor_id;sensor_type;location;lat;lon;timestamp;P1;durP1;ratioP1;P2;durP2;ratioP2
6356;SDS011;3211;53.452;-2.264;2023-12-07T00:01:44;8.03;;;5.40;;
6356;SDS011;3211;53.452;-2.264;2023-12-07T00:04:32;6.47;;;3.90;;
6356;SDS011;3211;53.452;-2.264;2023-12-07T00:07:19;7.50;;;4.63;;
6356;SDS011;3211;53.452;-2.264;2023-12-07T00:10:06;6.00;;;4.67;;
6356;SDS011;3211;53.452;-2.264;2023-12-07T00:12:54;9.53;;;5.53;;
6356;SDS011;3211;53.452;-2.264;2023-12-07T00:15:43;9.07;;;5.00;;
6356;SDS011;3211;53.452;-2.264;2023-12-07T00:18:30;12.13;;;6.10;;
6356;SDS011;3211;53.452;-2.264;2023-12-07T00:21:17;8.00;;;5.10;;
6356;SDS011;3211;53.452;-2.264;2023-12-07T00:24:05;6.53;;;4.80;;
6356;SDS011;3211;53.452;-2.264;2023-12-07T00:26:52;8.03;;;4.70;;
6356;SDS011;3211;53.452;-2.264;2023-12-07T00:29:40;6.77;;;5.10;;
6356;SDS011;3211;53.452;-2.264;2023-12-07T00:32:28;5.17;;;3.87;;
6356;SDS011;3211;53.452;-2.264;2023-12-07T00:35:15;10.43;;;4.50;;
6356;SDS011;3211;53.452;-2.264;2023-12-07T00:38:07;8.60;;;5.60;;
6356;SDS011;3211;53.452;-2.264;2023-12-07T00:40:54;9.10;;;4.20;;
6356;SDS011;3211;53.452;-2.264;2023-12-07T00:43:41;9.50;;;5.00;;
6356;SDS011;3211;53.452;-2.264;2023-12-07T00:46:29;5.97;;;4.20;;
6356;SDS011;3211;53.452;-2.264;2023-12-07T00:49:18;6.23;;;4.57;;
6356;SDS011;3211;53.452;-2.264;2023-12-07T00:52:05;9.40;;;4.47;;
6356;SDS011;3211;53.452;-2.264;2023-12-07T00:54:52;4.70;;;4.20;;
6356;SDS011;3211;53.452;-2.264;2023-12-07T00:57:40;9.07;;;4.70;;
6356;SDS011;3211;53.452;-2.264;2023-12-07T01:00:27;6.00;;;4.70;;
6356;SDS011;3211;53.452;-2.264;2023-12-07T01:03:14;7.00;;;4.50;;
6356;SDS011;3211;53.452;-2.264;2023-12-07T01:06:03;5.13;;;3.87;;
6356;SDS011;3211;53.452;-2.264;2023-12-07T01:08:51;5.90;;;4.23;;
6356;SDS011;3211;53.452;-2.264;2023-12-07T01:11:38;5.83;;;4.00;;
6356;SDS011;3211;53.452;-2.264;2023-12-07T01:14:26;5.30;;;3.37;;
6356;SDS011;3211;53.452;-2.264;2023-12-07T01:17:13;5.00;;;3.90;;
6356;SDS011;3211;53.452;-2.264;2023-12-07T01:20:00;6.23;;;4.23;;
6356;SDS011;3211;53.452;-2.264;2023-12-07T01:22:50;8.87;;;4.40;;
6356;SDS011;3211;53.452;-2.264;2023-12-07T01:25:37;5.57;;;4.20;;
6356;SDS011;3211;53.452;-2.264;2023-12-07T01:28:25;6.63;;;4.00;;
6356;SDS011;3211;53.452;-2.264;2023-12-07T01:31:12;5.00;;;3.93;;
6356;SDS011;3211;53.452;-2.264;2023-12-07T01:33:59;6.90;;;3.97;;
6356;SDS011;3211;53.452;-2.264;2023-12-07T01:36:46;5.87;;;3.47;;
6356;SDS011;3211;53.452;-2.264;2023-12-07T01:39:35;4.73;;;3.13;;
6356;SDS011;3211;53.452;-2.264;2023-12-07T01:42:23;6.17;;;3.80;;
6356;SDS011;3211;53.452;-2.264;2023-12-07T01:45:10;3.90;;;3.30;;
6356;SDS011;3211;53.452;-2.264;2023-12-07T01:47:57;3.73;;;3.10;;
6356;SDS011;3211;53.452;-2.264;2023-12-07T01:50:45;6.00;;;3.50;;
6356;SDS011;3211;53.452;-2.264;2023-12-07T01:53:33;5.07;;;3.33;;
6356;SDS011;3211;53.452;-2.264;2023-12-07T01:56:22;9.30;;;3.30;;
6356;SDS011;3211;53.452;-2.264;2023-12-07T01:59:11;8.83;;;4.60;;
6356;SDS011;3211;53.452;-2.264;2023-12-07T02:01:58;3.90;;;3.30;;
6356;SDS011;3211;53.452;-2.264;2023-12-07T02:04:46;4.77;;;3.07;;
6356;SDS011;3211;53.452;-2.264;2023-12-07T02:07:33;4.23;;;2.50;;
6356;SDS011;3211;53.452;-2.264;2023-12-07T02:10:21;6.77;;;3.63;;
6356;SDS011;3211;53.452;-2.264;2023-12-07T02:13:10;6.00;;;3.23;;
6356;SDS011;3211;53.452;-2.264;2023-12-07T02:15:57;3.87;;;2.97;;
6356;SDS011;3211;53.452;-2.264;2023-12-07T02:18:48;4.67;;;2.97;;
6356;SDS011;3211;53.452;-2.264;2023-12-07T02:21:40;4.43;;;3.37;;
6356;SDS011;3211;53.452;-2.264;2023-12-07T02:24:34;4.83;;;3.27;;
6356;SDS011;3211;53.452;-2.264;2023-12-07T02:27:34;3.47;;;2.97;;
6356;SDS011;3211;53.452;-2.264;2023-12-07T02:30:21;5.60;;;3.10;;
6356;SDS011;3211;53.452;-2.264;2023-12-07T02:33:09;7.90;;;3.70;;
6356;SDS011;3211;53.452;-2.264;2023-12-07T02:35:57;3.60;;;3.20;;
6356;SDS011;3211;53.452;-2.264;2023-12-07T02:38:44;7.80;;;3.20;;
6356;SDS011;3211;53.452;-2.264;2023-12-07T02:41:33;4.10;;;2.83;;
6356;SDS011;3211;53.452;-2.264;2023-12-07T02:44:23;6.50;;;3.37;;
6356;SDS011;3211;53.452;-2.264;2023-12-07T02:47:10;5.63;;;3.77;;
6356;SDS011;3211;53.452;-2.264;2023-12-07T02:49:58;5.30;;;3.50;;
6356;SDS011;3211;53.452;-2.264;2023-12-07T02:52:45;3.80;;;3.50;;
6356;SDS011;3211;53.452;-2.264;2023-12-07T02:55:32;6.97;;;3.60;;
6356;SDS011;3211;53.452;-2.264;2023-12-07T02:58:19;4.57;;;3.47;;
6356;SDS011;3211;53.452;-2.264;2023-12-07T03:01:08;6.23;;;3.70;;
6356;SDS011;3211;53.452;-2.264;2023-12-07T03:03:55;3.37;;;2.77;;
6356;SDS011;3211;53.452;-2.264;2023-12-07T03:06:43;5.40;;;3.73;;
6356;SDS011;3211;53.452;-2.264;2023-12-07T03:09:30;5.30;;;3.60;;
6356;SDS011;3211;53.452;-2.264;2023-12-07T03:12:17;5.20;;;3.30;;
6356;SDS011;3211;53.452;-2.264;2023-12-07T03:15:05;3.67;;;3.30;;
6356;SDS011;3211;53.452;-2.264;2023-12-07T03:17:56;4.53;;;3.57;;
6356;SDS011;3211;53.452;-2.264;2023-12-07T03:20:43;5.80;;;3.13;;
6356;SDS011;3211;53.452;-2.264;2023-12-07T03:23:31;6.67;;;3.63;;
6356;SDS011;3211;53.452;-2.264;2023-12-07T03:26:18;4.60;;;3.10;;
6356;SDS011;3211;53.452;-2.264;2023-12-07T03:29:05;5.70;;;3.40;;
6356;SDS011;3211;53.452;-2.264;2023-12-07T03:31:53;5.20;;;3.23;;
6356;SDS011;3211;53.452;-2.264;2023-12-07T03:34:42;6.17;;;3.50;;
6356;SDS011;3211;53.452;-2.264;2023-12-07T03:37:29;3.50;;;2.90;;
6356;SDS011;3211;53.452;-2.264;2023-12-07T03:40:16;4.30;;;3.10;;
6356;SDS011;3211;53.452;-2.264;2023-12-07T03:43:03;4.80;;;3.67;;
6356;SDS011;3211;53.452;-2.264;2023-12-07T03:45:51;7.93;;;3.50;;
6356;SDS011;3211;53.452;-2.264;2023-12-07T03:48:38;4.47;;;3.60;;
6356;SDS011;3211;53.452;-2.264;2023-12-07T03:51:27;7.00;;;3.20;;
6356;SDS011;3211;53.452;-2.264;2023-12-07T03:54:14;6.27;;;3.10;;
6356;SDS011;3211;53.452;-2.264;2023-12-07T03:57:02;3.63;;;3.07;;
6356;SDS011;3211;53.452;-2.264;2023-12-07T03:59:50;3.63;;;2.90;;
6356;SDS011;3211;53.452;-2.264;2023-12-07T04:02:38;4.63;;;3.40;;
6356;SDS011;3211;53.452;-2.264;2023-12-07T04:05:26;3.97;;;3.20;;
6356;SDS011;3211;53.452;-2.264;2023-12-07T04:08:14;4.17;;;3.20;;
6356;SDS011;3211;53.452;-2.264;2023-12-07T04:11:02;6.10;;;2.93;;
6356;SDS011;3211;53.452;-2.264;2023-12-07T04:13:49;4.70;;;3.17;;
6356;SDS011;3211;53.452;-2.264;2023-12-07T04:16:36;3.93;;;2.80;;
6356;SDS011;3211;53.452;-2.264;2023-12-07T04:19:23;2.97;;;2.67;;
6356;SDS011;3211;53.452;-2.264;2023-12-07T04:22:11;3.50;;;2.67;;
6356;SDS011;3211;53.452;-2.264;2023-12-07T04:24:59;2.97;;;2.37;;
6356;SDS011;3211;53.452;-2.264;2023-12-07T04:27:46;4.80;;;2.73;;
6356;SDS011;3211;53.452;-2.264;2023-12-07T04:30:34;3.50;;;3.20;;
6356;SDS011;3211;53.452;-2.264;2023-12-07T04:33:21;5.27;;;2.87;;
6356;SDS011;3211;53.452;-2.264;2023-12-07T04:36:08;3.80;;;3.00;;
6356;SDS011;3211;53.452;-2.264;2023-12-07T04:38:56;3.30;;;2.60;;
6356;SDS011;3211;53.452;-2.264;2023-12-07T04:41:44;6.80;;;2.97;;
6356;SDS011;3211;53.452;-2.264;2023-12-07T04:44:32;3.77;;;2.87;;
6356;SDS011;3211;53.452;-2.264;2023-12-07T04:47:19;3.50;;;2.40;;
6356;SDS011;3211;53.452;-2.264;2023-12-07T04:50:07;4.40;;;2.47;;
6356;SDS011;3211;53.452;-2.264;2023-12-07T04:52:55;3.80;;;3.50;;
6356;SDS011;3211;53.452;-2.264;2023-12-07T04:55:42;4.13;;;2.70;;
6356;SDS011;3211;53.452;-2.264;2023-12-07T04:58:34;3.87;;;2.53;;
6356;SDS011;3211;53.452;-2.264;2023-12-07T05:01:21;3.50;;;2.50;;
6356;SDS011;3211;53.452;-2.264;2023-12-07T05:04:08;4.00;;;2.50;;
6356;SDS011;3211;53.452;-2.264;2023-12-07T05:06:55;3.47;;;2.77;;
6356;SDS011;3211;53.452;-2.264;2023-12-07T05:09:43;2.60;;;2.30;;
6356;SDS011;3211;53.452;-2.264;2023-12-07T05:12:31;4.00;;;2.40;;
6356;SDS011;3211;53.452;-2.264;2023-12-07T05:15:19;3.33;;;2.37;;
6356;SDS011;3211;53.452;-2.264;2023-12-07T05:18:07;2.63;;;2.37;;
6356;SDS011;3211;53.452;-2.264;2023-12-07T05:20:54;5.10;;;3.20;;
6356;SDS011;3211;53.452;-2.264;2023-12-07T05:23:41;3.77;;;3.00;;
6356;SDS011;3211;53.452;-2.264;2023-12-07T05:26:29;3.23;;;2.50;;
6356;SDS011;3211;53.452;-2.264;2023-12-07T05:29:18;6.73;;;2.93;;
6356;SDS011;3211;53.452;-2.264;2023-12-07T05:32:07;3.93;;;2.87;;
6356;SDS011;3211;53.452;-2.264;2023-12-07T05:34:54;2.57;;;2.37;;
6356;SDS011;3211;53.452;-2.264;2023-12-07T05:37:42;3.80;;;2.67;;
6356;SDS011;3211;53.452;-2.264;2023-12-07T05:40:29;5.07;;;3.17;;
6356;SDS011;3211;53.452;-2.264;2023-12-07T05:43:17;4.00;;;2.37;;
6356;SDS011;3211;53.452;-2.264;2023-12-07T05:46:04;3.50;;;2.43;;
6356;SDS011;3211;53.452;-2.264;2023-12-07T05:48:53;4.37;;;3.10;;
6356;SDS011;3211;53.452;-2.264;2023-12-07T05:51:40;4.17;;;2.00;;
6356;SDS011;3211;53.452;-2.264;2023-12-07T05:54:27;2.70;;;1.90;;
6356;SDS011;3211;53.452;-2.264;2023-12-07T05:57:14;2.27;;;2.07;;
6356;SDS011;3211;53.452;-2.264;2023-12-07T06:00:01;3.47;;;2.20;;
6356;SDS011;3211;53.452;-2.264;2023-12-07T06:02:51;2.53;;;2.07;;
6356;SDS011;3211;53.452;-2.264;2023-12-07T06:05:39;2.23;;;1.93;;
6356;SDS011;3211;53.452;-2.264;2023-12-07T06:08:27;3.67;;;1.90;;
6356;SDS011;3211;53.452;-2.264;2023-12-07T06:11:14;2.20;;;2.00;;
6356;SDS011;3211;53.452;-2.264;2023-12-07T06:14:01;2.97;;;2.00;;
6356;SDS011;3211;53.452;-2.264;2023-12-07T06:16:51;5.23;;;1.60;;
6356;SDS011;3211;53.452;-2.264;2023-12-07T06:19:38;1.53;;;1.43;;
6356;SDS011;3211;53.452;-2.264;2023-12-07T06:22:27;1.90;;;1.70;;
6356;SDS011;3211;53.452;-2.264;2023-12-07T06:25:15;2.70;;;1.87;;
6356;SDS011;3211;53.452;-2.264;2023-12-07T06:28:02;1.80;;;1.70;;
6356;SDS011;3211;53.452;-2.264;2023-12-07T06:30:49;2.03;;;1.63;;
6356;SDS011;3211;53.452;-2.264;2023-12-07T06:33:37;1.83;;;1.57;;
6356;SDS011;3211;53.452;-2.264;2023-12-07T06:36:24;2.37;;;2.00;;
6356;SDS011;3211;53.452;-2.264;2023-12-07T06:39:13;2.00;;;1.80;;
6356;SDS011;3211;53.452;-2.264;2023-12-07T06:42:01;2.17;;;1.87;;
6356;SDS011;3211;53.452;-2.264;2023-12-07T06:44:48;2.03;;;1.83;;
6356;SDS011;3211;53.452;-2.264;2023-12-07T06:47:35;2.10;;;1.70;;
6356;SDS011;3211;53.452;-2.264;2023-12-07T06:50:23;2.60;;;1.80;;
6356;SDS011;3211;53.452;-2.264;2023-12-07T06:53:10;2.23;;;1.77;;
6356;SDS011;3211;53.452;-2.264;2023-12-07T06:55:59;2.67;;;2.27;;
6356;SDS011;3211;53.452;-2.264;2023-12-07T06:58:46;2.53;;;2.10;;
6356;SDS011;3211;53.452;-2.264;2023-12-07T07:01:33;2.40;;;2.03;;
6356;SDS011;3211;53.452;-2.264;2023-12-07T07:04:20;1.83;;;1.73;;
6356;SDS011;3211;53.452;-2.264;2023-12-07T07:07:07;2.33;;;1.90;;
6356;SDS011;3211;53.452;-2.264;2023-12-07T07:09:55;2.87;;;1.90;;
6356;SDS011;3211;53.452;-2.264;2023-12-07T07:12:44;2.00;;;1.77;;
6356;SDS011;3211;53.452;-2.264;2023-12-07T07:15:31;1.90;;;1.73;;
6356;SDS011;3211;53.452;-2.264;2023-12-07T07:18:19;2.20;;;2.00;;
6356;SDS011;3211;53.452;-2.264;2023-12-07T07:21:09;3.00;;;1.83;;
6356;SDS011;3211;53.452;-2.264;2023-12-07T07:23:56;2.13;;;1.63;;
6356;SDS011;3211;53.452;-2.264;2023-12-07T07:26:44;1.93;;;1.73;;
6356;SDS011;3211;53.452;-2.264;2023-12-07T07:29:32;3.10;;;2.00;;
6356;SDS011;3211;53.452;-2.264;2023-12-07T07:32:20;2.63;;;1.90;;
6356;SDS011;3211;53.452;-2.264;2023-12-07T07:35:07;3.30;;;1.83;;
6356;SDS011;3211;53.452;-2.264;2023-12-07T07:37:57;2.40;;;1.73;;
6356;SDS011;3211;53.452;-2.264;2023-12-07T07:40:44;2.03;;;1.83;;
6356;SDS011;3211;53.452;-2.264;2023-12-07T07:43:32;3.10;;;1.70;;
6356;SDS011;3211;53.452;-2.264;2023-12-07T07:46:22;2.67;;;2.00;;
6356;SDS011;3211;53.452;-2.264;2023-12-07T07:49:09;2.23;;;1.80;;
6356;SDS011;3211;53.452;-2.264;2023-12-07T07:51:56;2.40;;;1.90;;
6356;SDS011;3211;53.452;-2.264;2023-12-07T07:54:43;1.50;;;1.40;;
6356;SDS011;3211;53.452;-2.264;2023-12-07T07:57:31;1.67;;;1.57;;
6356;SDS011;3211;53.452;-2.264;2023-12-07T08:00:18;1.87;;;1.50;;
6356;SDS011;3211;53.452;-2.264;2023-12-07T08:03:08;2.03;;;1.70;;
6356;SDS011;3211;53.452;-2.264;2023-12-07T08:05:55;3.30;;;1.40;;
6356;SDS011;3211;53.452;-2.264;2023-12-07T08:08:42;4.30;;;1.93;;
6356;SDS011;3211;53.452;-2.264;2023-12-07T08:11:29;2.43;;;1.70;;
6356;SDS011;3211;53.452;-2.264;2023-12-07T08:14:18;1.63;;;1.53;;
6356;SDS011;3211;53.452;-2.264;2023-12-07T08:17:05;1.43;;;1.33;;
6356;SDS011;3211;53.452;-2.264;2023-12-07T08:19:53;1.60;;;1.50;;
6356;SDS011;3211;53.452;-2.264;2023-12-07T08:22:41;1.67;;;1.50;;
6356;SDS011;3211;53.452;-2.264;2023-12-07T08:25:28;1.73;;;1.30;;
6356;SDS011;3211;53.452;-2.264;2023-12-07T08:28:17;1.50;;;1.40;;
6356;SDS011;3211;53.452;-2.264;2023-12-07T08:31:05;1.90;;;1.57;;
6356;SDS011;3211;53.452;-2.264;2023-12-07T08:33:53;2.20;;;1.67;;
6356;SDS011;3211;53.452;-2.264;2023-12-07T08:36:42;2.50;;;2.30;;
6356;SDS011;3211;53.452;-2.264;2023-12-07T08:39:29;2.10;;;1.90;;
6356;SDS011;3211;53.452;-2.264;2023-12-07T08:42:16;1.93;;;1.57;;
6356;SDS011;3211;53.452;-2.264;2023-12-07T08:45:04;1.30;;;1.20;;
6356;SDS011;3211;53.452;-2.264;2023-12-07T08:47:51;2.17;;;1.83;;
6356;SDS011;3211;53.452;-2.264;2023-12-07T08:50:39;1.97;;;1.40;;
6356;SDS011;3211;53.452;-2.264;2023-12-07T08:53:27;2.50;;;1.40;;
6356;SDS011;3211;53.452;-2.264;2023-12-07T08:56:15;3.13;;;1.67;;
6356;SDS011;3211;53.452;-2.264;2023-12-07T08:59:02;1.40;;;1.30;;
6356;SDS011;3211;53.452;-2.264;2023-12-07T09:01:49;1.83;;;1.20;;
6356;SDS011;3211;53.452;-2.264;2023-12-07T09:04:37;1.93;;;1.60;;
6356;SDS011;3211;53.452;-2.264;2023-12-07T09:07:24;7.90;;;1.70;;
6356;SDS011;3211;53.452;-2.264;2023-12-07T09:10:13;5.73;;;1.70;;
6356;SDS011;3211;53.452;-2.264;2023-12-07T09:13:00;3.63;;;1.77;;
6356;SDS011;3211;53.452;-2.264;2023-12-07T09:15:48;1.70;;;1.43;;
6356;SDS011;3211;53.452;-2.264;2023-12-07T09:18:35;1.40;;;1.20;;
6356;SDS011;3211;53.452;-2.264;2023-12-07T09:21:22;1.20;;;1.10;;
6356;SDS011;3211;53.452;-2.264;2023-12-07T09:24:10;1.40;;;1.30;;
6356;SDS011;3211;53.452;-2.264;2023-12-07T09:26:59;1.50;;;1.23;;
6356;SDS011;3211;53.452;-2.264;2023-12-07T09:29:46;2.10;;;1.30;;
6356;SDS011;3211;53.452;-2.264;2023-12-07T09:32:33;1.40;;;1.10;;
6356;SDS011;3211;53.452;-2.264;2023-12-07T09:35:23;1.47;;;1.37;;
6356;SDS011;3211;53.452;-2.264;2023-12-07T09:38:10;1.30;;;1.13;;
6356;SDS011;3211;53.452;-2.264;2023-12-07T09:40:58;2.40;;;1.10;;
6356;SDS011;3211;53.452;-2.264;2023-12-07T09:43:47;1.20;;;1.10;;
6356;SDS011;3211;53.452;-2.264;2023-12-07T09:46:34;1.37;;;1.27;;
6356;SDS011;3211;53.452;-2.264;2023-12-07T09:49:21;3.00;;;1.67;;
6356;SDS011;3211;53.452;-2.264;2023-12-07T09:52:08;3.07;;;1.57;;
6356;SDS011;3211;53.452;-2.264;2023-12-07T09:54:58;1.10;;;1.00;;
6356;SDS011;3211;53.452;-2.264;2023-12-07T09:57:47;2.13;;;1.60;;
6356;SDS011;3211;53.452;-2.264;2023-12-07T10:00:36;1.20;;;1.10;;
6356;SDS011;3211;53.452;-2.264;2023-12-07T10:03:24;1.43;;;1.33;;
6356;SDS011;3211;53.452;-2.264;2023-12-07T10:06:11;1.30;;;1.20;;
6356;SDS011;3211;53.452;-2.264;2023-12-07T10:09:01;1.50;;;1.40;;
6356;SDS011;3211;53.452;-2.264;2023-12-07T10:11:53;1.10;;;1.00;;
6356;SDS011;3211;53.452;-2.264;2023-12-07T10:14:49;1.37;;;1.27;;
6356;SDS011;3211;53.452;-2.264;2023-12-07T10:17:47;1.40;;;1.30;;
6356;SDS011;3211;53.452;-2.264;2023-12-07T10:20:35;1.67;;;1.57;;
6356;SDS011;3211;53.452;-2.264;2023-12-07T10:23:23;1.90;;;1.60;;
6356;SDS011;3211;53.452;-2.264;2023-12-07T10:26:11;1.73;;;1.40;;
6356;SDS011;3211;53.452;-2.264;2023-12-07T10:29:01;2.10;;;1.57;;
6356;SDS011;3211;53.452;-2.264;2023-12-07T10:31:48;2.90;;;1.87;;
6356;SDS011;3211;53.452;-2.264;2023-12-07T10:34:37;3.00;;;1.77;;
6356;SDS011;3211;53.452;-2.264;2023-12-07T10:37:24;3.73;;;1.63;;
6356;SDS011;3211;53.452;-2.264;2023-12-07T10:40:11;3.20;;;1.70;;
6356;SDS011;3211;53.452;-2.264;2023-12-07T10:42:59;2.10;;;1.60;;
6356;SDS011;3211;53.452;-2.264;2023-12-07T10:45:50;2.90;;;1.60;;
6356;SDS011;3211;53.452;-2.264;2023-12-07T10:48:38;1.67;;;1.43;;
6356;SDS011;3211;53.452;-2.264;2023-12-07T10:51:31;1.70;;;1.60;;
6356;SDS011;3211;53.452;-2.264;2023-12-07T10:54:21;1.73;;;1.37;;
6356;SDS011;3211;53.452;-2.264;2023-12-07T10:57:09;1.70;;;1.60;;
6356;SDS011;3211;53.452;-2.264;2023-12-07T10:59:59;3.40;;;1.60;;
6356;SDS011;3211;53.452;-2.264;2023-12-07T11:02:47;1.33;;;1.20;;
6356;SDS011;3211;53.452;-2.264;2023-12-07T11:05:34;1.30;;;1.20;;
6356;SDS011;3211;53.452;-2.264;2023-12-07T11:08:25;1.30;;;1.20;;
6356;SDS011;3211;53.452;-2.264;2023-12-07T11:11:18;1.40;;;1.07;;
6356;SDS011;3211;53.452;-2.264;2023-12-07T11:14:11;1.57;;;1.20;;
6356;SDS011;3211;53.452;-2.264;2023-12-07T11:16:59;1.10;;;1.00;;
6356;SDS011;3211;53.452;-2.264;2023-12-07T11:19:47;1.10;;;1.00;;
6356;SDS011;3211;53.452;-2.264;2023-12-07T11:22:34;1.77;;;1.20;;
6356;SDS011;3211;53.452;-2.264;2023-12-07T11:25:23;1.30;;;1.20;;
6356;SDS011;3211;53.452;-2.264;2023-12-07T11:28:11;1.73;;;1.10;;
6356;SDS011;3211;53.452;-2.264;2023-12-07T11:31:00;1.10;;;1.00;;
6356;SDS011;3211;53.452;-2.264;2023-12-07T11:33:47;0.97;;;0.90;;
6356;SDS011;3211;53.452;-2.264;2023-12-07T11:36:35;1.10;;;1.00;;
6356;SDS011;3211;53.452;-2.264;2023-12-07T11:39:22;1.10;;;1.00;;
6356;SDS011;3211;53.452;-2.264;2023-12-07T11:42:14;0.90;;;0.90;;
6356;SDS011;3211;53.452;-2.264;2023-12-07T11:45:03;1.17;;;1.07;;
6356;SDS011;3211;53.452;-2.264;2023-12-07T11:48:05;1.30;;;1.17;;
6356;SDS011;3211;53.452;-2.264;2023-12-07T11:50:54;1.10;;;1.00;;
6356;SDS011;3211;53.452;-2.264;2023-12-07T11:53:42;1.20;;;1.10;;
6356;SDS011;3211;53.452;-2.264;2023-12-07T11:56:29;1.30;;;1.20;;
6356;SDS011;3211;53.452;-2.264;2023-12-07T11:59:18;1.47;;;1.13;;
6356;SDS011;3211;53.452;-2.264;2023-12-07T12:02:05;1.20;;;1.10;;
6356;SDS011;3211;53.452;-2.264;2023-12-07T12:04:52;1.60;;;1.10;;
6356;SDS011;3211;53.452;-2.264;2023-12-07T12:07:39;3.23;;;1.27;;
6356;SDS011;3211;53.452;-2.264;2023-12-07T12:10:27;1.27;;;1.17;;
6356;SDS011;3211;53.452;-2.264;2023-12-07T12:13:14;1.20;;;1.10;;
6356;SDS011;3211;53.452;-2.264;2023-12-07T12:16:04;1.40;;;1.30;;
6356;SDS011;3211;53.452;-2.264;2023-12-07T12:18:52;1.90;;;1.23;;
6356;SDS011;3211;53.452;-2.264;2023-12-07T12:21:39;2.23;;;1.80;;
6356;SDS011;3211;53.452;-2.264;2023-12-07T12:24:28;1.40;;;1.30;;
6356;SDS011;3211;53.452;-2.264;2023-12-07T12:27:17;1.87;;;1.50;;
6356;SDS011;3211;53.452;-2.264;2023-12-07T12:30:04;1.67;;;1.20;;
6356;SDS011;3211;53.452;-2.264;2023-12-07T12:32:55;1.33;;;1.20;;
6356;SDS011;3211;53.452;-2.264;2023-12-07T12:35:42;1.93;;;1.77;;
6356;SDS011;3211;53.452;-2.264;2023-12-07T12:38:30;6.37;;;1.53;;
6356;SDS011;3211;53.452;-2.264;2023-12-07T12:41:18;2.97;;;1.70;;
6356;SDS011;3211;53.452;-2.264;2023-12-07T12:44:05;2.53;;;1.70;;
6356;SDS011;3211;53.452;-2.264;2023-12-07T12:46:52;1.93;;;1.80;;
6356;SDS011;3211;53.452;-2.264;2023-12-07T12:49:41;3.33;;;2.13;;
6356;SDS011;3211;53.452;-2.264;2023-12-07T12:52:30;5.43;;;1.70;;
6356;SDS011;3211;53.452;-2.264;2023-12-07T12:55:17;2.07;;;1.87;;
6356;SDS011;3211;53.452;-2.264;2023-12-07T12:58:05;4.90;;;2.40;;
6356;SDS011;3211;53.452;-2.264;2023-12-07T13:00:53;6.50;;;2.20;;
6356;SDS011;3211;53.452;-2.264;2023-12-07T13:03:42;3.40;;;2.10;;
6356;SDS011;3211;53.452;-2.264;2023-12-07T13:06:32;2.53;;;1.60;;
6356;SDS011;3211;53.452;-2.264;2023-12-07T13:09:19;2.00;;;1.80;;
6356;SDS011;3211;53.452;-2.264;2023-12-07T13:12:07;3.67;;;2.20;;
6356;SDS011;3211;53.452;-2.264;2023-12-07T13:14:54;3.70;;;2.27;;
6356;SDS011;3211;53.452;-2.264;2023-12-07T13:17:42;5.80;;;2.30;;
6356;SDS011;3211;53.452;-2.264;2023-12-07T13:20:29;2.97;;;1.50;;
6356;SDS011;3211;53.452;-2.264;2023-12-07T13:23:18;2.47;;;1.90;;
6356;SDS011;3211;53.452;-2.264;2023-12-07T13:26:06;6.93;;;2.30;;
6356;SDS011;3211;53.452;-2.264;2023-12-07T13:28:54;2.47;;;1.80;;
6356;SDS011;3211;53.452;-2.264;2023-12-07T13:31:41;2.23;;;1.80;;
6356;SDS011;3211;53.452;-2.264;2023-12-07T13:34:28;5.40;;;2.33;;
6356;SDS011;3211;53.452;-2.264;2023-12-07T13:37:15;6.70;;;2.20;;
6356;SDS011;3211;53.452;-2.264;2023-12-07T13:40:05;1.83;;;1.30;;
6356;SDS011;3211;53.452;-2.264;2023-12-07T13:42:55;5.13;;;1.93;;
6356;SDS011;3211;53.452;-2.264;2023-12-07T13:45:42;4.73;;;1.50;;
6356;SDS011;3211;53.452;-2.264;2023-12-07T13:48:30;2.27;;;2.07;;
6356;SDS011;3211;53.452;-2.264;2023-12-07T13:51:17;3.23;;;1.80;;
6356;SDS011;3211;53.452;-2.264;2023-12-07T13:54:05;4.30;;;2.20;;
6356;SDS011;3211;53.452;-2.264;2023-12-07T13:56:54;2.90;;;1.60;;
6356;SDS011;3211;53.452;-2.264;2023-12-07T13:59:42;1.67;;;1.53;;
6356;SDS011;3211;53.452;-2.264;2023-12-07T14:02:29;3.77;;;1.90;;
6356;SDS011;3211;53.452;-2.264;2023-12-07T14:05:16;2.30;;;1.70;;
6356;SDS011;3211;53.452;-2.264;2023-12-07T14:08:04;1.87;;;1.57;;
6356;SDS011;3211;53.452;-2.264;2023-12-07T14:10:51;3.27;;;1.90;;
6356;SDS011;3211;53.452;-2.264;2023-12-07T14:13:40;2.13;;;1.60;;
6356;SDS011;3211;53.452;-2.264;2023-12-07T14:16:27;1.70;;;1.60;;
6356;SDS011;3211;53.452;-2.264;2023-12-07T14:19:14;1.87;;;1.60;;
6356;SDS011;3211;53.452;-2.264;2023-12-07T14:22:02;1.50;;;1.40;;
6356;SDS011;3211;53.452;-2.264;2023-12-07T14:24:49;1.47;;;1.37;;
6356;SDS011;3211;53.452;-2.264;2023-12-07T14:27:37;1.40;;;1.30;;
6356;SDS011;3211;53.452;-2.264;2023-12-07T14:30:26;1.90;;;1.70;;
6356;SDS011;3211;53.452;-2.264;2023-12-07T14:33:13;2.20;;;1.70;;
6356;SDS011;3211;53.452;-2.264;2023-12-07T14:36:00;2.10;;;1.30;;
6356;SDS011;3211;53.452;-2.264;2023-12-07T14:38:48;2.90;;;1.40;;
6356;SDS011;3211;53.452;-2.264;2023-12-07T14:41:35;2.03;;;1.30;;
6356;SDS011;3211;53.452;-2.264;2023-12-07T14:44:22;1.20;;;1.10;;
6356;SDS011;3211;53.452;-2.264;2023-12-07T14:47:11;1.83;;;1.03;;
6356;SDS011;3211;53.452;-2.264;2023-12-07T14:49:58;1.20;;;1.10;;
6356;SDS011;3211;53.452;-2.264;2023-12-07T14:52:46;2.57;;;1.30;;
6356;SDS011;3211;53.452;-2.264;2023-12-07T14:55:34;1.27;;;1.17;;
6356;SDS011;3211;53.452;-2.264;2023-12-07T14:58:21;1.30;;;1.20;;
6356;SDS011;3211;53.452;-2.264;2023-12-07T15:01:08;1.57;;;1.30;;
6356;SDS011;3211;53.452;-2.264;2023-12-07T15:03:57;2.33;;;1.20;;
6356;SDS011;3211;53.452;-2.264;2023-12-07T15:06:44;2.73;;;1.37;;
6356;SDS011;3211;53.452;-2.264;2023-12-07T15:09:31;2.70;;;1.40;;
6356;SDS011;3211;53.452;-2.264;2023-12-07T15:12:22;1.50;;;1.20;;
6356;SDS011;3211;53.452;-2.264;2023-12-07T15:15:10;2.97;;;1.30;;
6356;SDS011;3211;53.452;-2.264;2023-12-07T15:17:57;2.20;;;1.47;;
6356;SDS011;3211;53.452;-2.264;2023-12-07T15:20:46;1.43;;;1.33;;
6356;SDS011;3211;53.452;-2.264;2023-12-07T15:23:33;2.20;;;1.33;;
6356;SDS011;3211;53.452;-2.264;2023-12-07T15:26:21;1.60;;;1.30;;
6356;SDS011;3211;53.452;-2.264;2023-12-07T15:29:08;2.20;;;1.40;;
6356;SDS011;3211;53.452;-2.264;2023-12-07T15:31:55;1.30;;;1.20;;
6356;SDS011;3211;53.452;-2.264;2023-12-07T15:34:42;1.73;;;1.50;;
6356;SDS011;3211;53.452;-2.264;2023-12-07T15:37:31;1.73;;;1.10;;
6356;SDS011;3211;53.452;-2.264;2023-12-07T15:40:18;1.60;;;1.33;;
6356;SDS011;3211;53.452;-2.264;2023-12-07T15:43:05;3.00;;;1.57;;
6356;SDS011;3211;53.452;-2.264;2023-12-07T15:45:52;1.47;;;1.30;;
6356;SDS011;3211;53.452;-2.264;2023-12-07T15:48:40;1.97;;;1.20;;
6356;SDS011;3211;53.452;-2.264;2023-12-07T15:51:27;1.43;;;1.10;;
6356;SDS011;3211;53.452;-2.264;2023-12-07T15:54:15;1.10;;;1.00;;
6356;SDS011;3211;53.452;-2.264;2023-12-07T15:57:03;1.30;;;1.20;;
6356;SDS011;3211;53.452;-2.264;2023-12-07T15:59:50;2.03;;;1.13;;
6356;SDS011;3211;53.452;-2.264;2023-12-07T16:02:38;1.60;;;1.20;;
6356;SDS011;3211;53.452;-2.264;2023-12-07T16:05:25;1.97;;;1.73;;
6356;SDS011;3211;53.452;-2.264;2023-12-07T16:08:13;1.40;;;1.27;;
6356;SDS011;3211;53.452;-2.264;2023-12-07T16:11:01;1.30;;;1.20;;
6356;SDS011;3211;53.452;-2.264;2023-12-07T16:13:48;1.93;;;1.40;;
6356;SDS011;3211;53.452;-2.264;2023-12-07T16:16:36;1.30;;;1.20;;
6356;SDS011;3211;53.452;-2.264;2023-12-07T16:19:23;1.70;;;1.43;;
6356;SDS011;3211;53.452;-2.264;2023-12-07T16:22:10;1.47;;;1.37;;
6356;SDS011;3211;53.452;-2.264;2023-12-07T16:24:58;2.13;;;1.30;;
6356;SDS011;3211;53.452;-2.264;2023-12-07T16:27:49;2.27;;;1.50;;
6356;SDS011;3211;53.452;-2.264;2023-12-07T16:30:36;2.40;;;1.70;;
6356;SDS011;3211;53.452;-2.264;2023-12-07T16:33:23;1.50;;;1.40;;
6356;SDS011;3211;53.452;-2.264;2023-12-07T16:36:14;2.10;;;1.40;;
6356;SDS011;3211;53.452;-2.264;2023-12-07T16:39:01;2.53;;;1.70;;
6356;SDS011;3211;53.452;-2.264;2023-12-07T16:41:49;1.70;;;1.60;;
6356;SDS011;3211;53.452;-2.264;2023-12-07T16:44:38;1.87;;;1.60;;
6356;SDS011;3211;53.452;-2.264;2023-12-07T16:47:26;2.43;;;2.00;;
6356;SDS011;3211;53.452;-2.264;2023-12-07T16:50:13;3.67;;;1.90;;
6356;SDS011;3211;53.452;-2.264;2023-12-07T16:53:00;2.80;;;1.60;;
6356;SDS011;3211;53.452;-2.264;2023-12-07T16:55:48;1.60;;;1.50;;
6356;SDS011;3211;53.452;-2.264;2023-12-07T16:58:35;1.80;;;1.70;;
6356;SDS011;3211;53.452;-2.264;2023-12-07T17:01:23;1.87;;;1.60;;
6356;SDS011;3211;53.452;-2.264;2023-12-07T17:04:11;2.13;;;1.70;;
6356;SDS011;3211;53.452;-2.264;2023-12-07T17:06:58;2.37;;;1.60;;